LFSG/EPL METAR and TAF weather

Enter ICAO airport designator
Station Type Date Time Source
LFSG METAR 2019/12/10 06:00 UTC NOAA

LFSG 100600Z AUTO 22003KT CAVOK M01/M02 Q1027


Station Type Date Time Source
LFSG Decoded METAR 2019/12/10 06:00 UTC NOAA

Station name not available
Dec 10, 2019 - 01:00 AM EST / 2019.12.10 0600 UTC
Wind: from the SW (220 degrees) at 3 MPH (3 KT):0
Visibility: greater than 7 mile(s):0
Temperature: 30 F (-1 C)
Dew Point: 28 F (-2 C)
Relative Humidity: 92%
Pressure (altimeter): 30.33 in. Hg (1027 hPa)
ob: LFSG 100600Z AUTO 22003KT CAVOK M01/M02 Q1027
cycle: 6

Station Type Date Time Source
LFSG TAF UTC NOAA

Error!

Example: see airport list